createdAt,value
2022-09-07T00:02:27.831Z,13.68
2022-09-07T00:07:30.689Z,13.93
2022-09-07T00:12:34.663Z,13.90
2022-09-07T00:17:38.121Z,14.40
2022-09-07T00:22:40.800Z,13.45
2022-09-07T00:27:45.121Z,14.18
2022-09-07T00:32:47.780Z,13.05
2022-09-07T00:37:50.452Z,13.32
2022-09-07T00:42:54.612Z,13.77
2022-09-07T00:48:01.789Z,13.45
2022-09-07T00:53:07.921Z,14.38
2022-09-07T00:58:12.540Z,14.43
2022-09-07T01:03:17.707Z,13.25
2022-09-07T01:08:20.695Z,13.43
2022-09-07T01:13:24.855Z,13.52
2022-09-07T01:18:37.244Z,13.23
2022-09-07T01:24:14.034Z,13.07
2022-09-07T01:29:23.277Z,12.57
2022-09-07T01:34:27.351Z,13.00
2022-09-07T01:39:37.814Z,12.95
2022-09-07T01:44:47.156Z,13.25
2022-09-07T01:49:55.345Z,14.82
2022-09-07T01:55:04.323Z,13.75
2022-09-07T02:00:11.618Z,14.25
2022-09-07T02:05:18.523Z,12.13
2022-09-07T02:10:25.504Z,12.40
2022-09-07T02:15:39.271Z,11.90
2022-09-07T02:20:47.729Z,10.63
2022-09-07T02:25:55.203Z,11.43
2022-09-07T02:30:59.504Z,11.07
2022-09-07T02:36:03.786Z,10.35
2022-09-07T02:41:07.389Z,10.93
2022-09-07T02:46:27.281Z,11.38
2022-09-07T02:51:36.479Z,11.55
2022-09-07T02:56:52.031Z,11.48
2022-09-07T03:02:03.803Z,10.68
2022-09-07T03:07:11.428Z,11.20
2022-09-07T03:12:14.571Z,10.75
2022-09-07T03:17:18.780Z,10.95
2022-09-07T03:22:21.452Z,10.73
2022-09-07T03:27:24.185Z,10.38
2022-09-07T03:32:31.835Z,10.57
2022-09-07T03:37:36.703Z,9.50
2022-09-07T03:42:39.828Z,10.45
2022-09-07T03:47:44.312Z,11.45
2022-09-07T03:52:47.311Z,11.30
2022-09-07T03:57:50.009Z,11.00
2022-09-07T04:02:54.066Z,12.38
2022-09-07T04:07:56.837Z,11.65
2022-09-07T04:12:59.527Z,12.45
2022-09-07T04:18:03.568Z,12.07
2022-09-07T04:23:06.286Z,12.68
2022-09-07T04:28:11.364Z,13.50
2022-09-07T04:33:16.220Z,13.75
2022-09-07T04:38:18.931Z,12.95
2022-09-07T04:43:21.639Z,14.68
2022-09-07T04:48:25.791Z,13.82
2022-09-07T04:53:28.484Z,14.00
2022-09-07T04:58:31.352Z,13.35
2022-09-07T05:03:37.849Z,13.00
2022-09-07T05:08:42.457Z,12.40
2022-09-07T05:13:45.244Z,12.05
2022-09-07T05:18:52.553Z,12.38
2022-09-07T05:23:56.751Z,11.73
2022-09-07T05:39:34.362Z,10.15
2022-09-07T05:44:45.523Z,10.45
2022-09-07T05:49:51.982Z,10.75
2022-09-07T05:55:07.737Z,11.55
2022-09-07T06:00:18.722Z,10.50
2022-09-07T06:05:22.857Z,10.70
2022-09-07T06:15:49.263Z,10.90
2022-09-07T06:20:54.004Z,10.00
2022-09-07T06:25:56.711Z,10.38
2022-09-07T06:31:02.846Z,10.18
2022-09-07T06:36:09.423Z,10.45
2022-09-07T06:52:02.019Z,11.07
2022-09-07T06:57:23.217Z,11.40
2022-09-07T07:02:25.946Z,9.75
2022-09-07T07:07:30.405Z,9.85
2022-09-07T07:17:37.534Z,9.15
2022-09-07T07:22:48.676Z,9.60
2022-09-07T07:27:51.550Z,9.27
2022-09-07T07:32:54.717Z,8.63
2022-09-07T07:43:21.577Z,8.82
2022-09-07T07:53:42.542Z,8.13
2022-09-07T07:58:47.199Z,8.30
2022-09-07T08:03:50.271Z,7.32
2022-09-07T08:08:54.403Z,6.22
2022-09-07T08:14:00.330Z,6.22
2022-09-07T08:19:03.401Z,6.10
2022-09-07T08:24:07.759Z,5.60
2022-09-07T08:29:10.405Z,5.07
2022-09-07T08:34:13.103Z,4.75
2022-09-07T08:39:17.130Z,5.35
2022-09-07T08:44:25.131Z,5.50
2022-09-07T08:49:33.221Z,4.82
2022-09-07T08:54:38.870Z,4.60
2022-09-07T08:59:47.422Z,5.40
2022-09-07T09:10:23.114Z,5.20
2022-09-07T09:15:33.412Z,4.70
2022-09-07T09:20:42.538Z,5.55
2022-09-07T09:25:53.281Z,5.60
2022-09-07T09:30:56.330Z,5.38
2022-09-07T09:36:01.152Z,4.68
2022-09-07T09:41:07.837Z,5.13
2022-09-07T09:46:23.559Z,4.90
2022-09-07T09:56:53.113Z,5.07
2022-09-07T10:07:23.209Z,5.50
2022-09-07T10:12:32.105Z,4.93
2022-09-07T10:17:36.795Z,5.50
2022-09-07T10:22:40.768Z,5.57
2022-09-07T10:27:46.720Z,5.13
2022-09-07T10:33:00.045Z,5.78
2022-09-07T10:38:15.903Z,5.95
2022-09-07T10:43:32.136Z,6.10
2022-09-07T10:48:42.529Z,5.68
2022-09-07T11:05:05.832Z,6.50
2022-09-07T11:10:18.204Z,6.25
2022-09-07T11:15:26.246Z,5.70
2022-09-07T11:20:32.451Z,5.68
2022-09-07T11:25:40.809Z,6.20
2022-09-07T11:30:50.289Z,6.25
2022-09-07T11:35:58.599Z,5.97
2022-09-07T11:41:13.605Z,5.97
2022-09-07T11:46:32.238Z,5.95
2022-09-07T11:51:41.475Z,5.80
2022-09-07T11:56:49.042Z,5.88
2022-09-07T12:02:04.017Z,5.40
2022-09-07T12:07:28.085Z,5.25
2022-09-07T12:12:51.551Z,4.88
2022-09-07T12:18:14.097Z,4.65
2022-09-07T12:23:27.145Z,5.05
2022-09-07T12:29:05.399Z,4.80
2022-09-07T12:34:50.253Z,5.75
2022-09-07T12:40:33.130Z,6.55
2022-09-07T12:45:51.780Z,5.93
2022-09-07T12:50:59.085Z,6.03
2022-09-07T12:56:25.781Z,6.70
2022-09-07T13:01:37.672Z,7.00
2022-09-07T13:07:13.381Z,7.78
2022-09-07T13:17:57.358Z,7.35
2022-09-07T13:23:19.236Z,7.95
2022-09-07T13:28:31.370Z,8.63
2022-09-07T13:33:48.185Z,9.95
2022-09-07T13:38:52.447Z,8.95
2022-09-07T13:44:02.945Z,10.50
2022-09-07T13:49:17.922Z,10.65
2022-09-07T13:54:27.332Z,7.85
2022-09-07T13:59:33.445Z,8.20
2022-09-07T14:04:41.954Z,6.50
2022-09-07T14:09:44.847Z,6.20
2022-09-07T14:14:48.587Z,6.30
2022-09-07T14:19:53.312Z,5.97
2022-09-07T14:24:58.115Z,6.22
2022-09-07T14:30:17.078Z,6.88
2022-09-07T14:35:23.614Z,6.20
2022-09-07T14:40:27.729Z,6.85
2022-09-07T14:45:34.906Z,7.10
2022-09-07T14:50:41.468Z,6.13
2022-09-07T14:55:47.492Z,7.25
2022-09-07T15:12:04.945Z,6.43
2022-09-07T15:22:31.557Z,5.57
2022-09-07T15:27:34.220Z,5.40
2022-09-07T15:32:37.026Z,4.50
2022-09-07T15:43:16.350Z,4.47
2022-09-07T15:48:25.244Z,4.63
2022-09-07T15:58:54.367Z,4.95
2022-09-07T16:03:58.926Z,4.78
2022-09-07T16:09:06.209Z,5.03
2022-09-07T16:14:11.664Z,4.97
2022-09-07T16:19:15.392Z,5.28
2022-09-07T16:24:19.510Z,6.13
2022-09-07T16:29:22.384Z,5.97
2022-09-07T16:34:25.075Z,6.03
2022-09-07T16:39:29.285Z,7.45
2022-09-07T16:44:32.102Z,7.80
2022-09-07T16:49:34.793Z,7.93
2022-09-07T16:54:38.783Z,8.32
2022-09-07T16:59:41.514Z,9.25
2022-09-07T17:04:44.459Z,10.05
2022-09-07T17:09:48.557Z,12.52
2022-09-07T17:14:51.742Z,12.07
2022-09-07T17:19:55.069Z,11.20
2022-09-07T17:24:59.058Z,10.43
2022-09-07T17:30:02.089Z,10.15
2022-09-07T17:35:07.003Z,9.82
2022-09-07T17:40:12.586Z,9.68
2022-09-07T17:45:15.420Z,9.55
2022-09-07T17:50:18.293Z,8.90
2022-09-07T17:55:23.156Z,9.48
2022-09-07T18:00:25.891Z,10.38
2022-09-07T18:05:28.596Z,9.02
2022-09-07T18:16:01.313Z,10.50
2022-09-07T18:21:13.894Z,12.25
2022-09-07T18:26:18.417Z,11.57
2022-09-07T18:31:25.576Z,10.60
2022-09-07T18:36:32.677Z,11.10
2022-09-07T18:41:48.197Z,9.50
2022-09-07T18:46:57.666Z,10.80
2022-09-07T18:57:36.524Z,10.93
2022-09-07T19:02:40.420Z,13.40
2022-09-07T19:07:45.550Z,11.68
2022-09-07T19:12:51.015Z,11.77
2022-09-07T19:17:54.227Z,12.10
2022-09-07T19:22:57.270Z,12.10
2022-09-07T19:28:01.497Z,13.50
2022-09-07T19:33:04.802Z,13.45
2022-09-07T19:38:07.652Z,12.95
2022-09-07T19:43:11.843Z,13.75
2022-09-07T19:48:14.702Z,13.45
2022-09-07T19:53:17.926Z,15.05
2022-09-07T19:58:23.129Z,14.18
2022-09-07T20:03:26.138Z,13.63
2022-09-07T20:08:30.805Z,13.65
2022-09-07T20:13:36.216Z,14.63
2022-09-07T20:18:42.020Z,14.20
2022-09-07T20:23:48.384Z,14.52
2022-09-07T20:29:23.449Z,15.70
2022-09-07T20:34:22.391Z,15.38
2022-09-07T20:39:28.180Z,15.68
2022-09-07T20:44:35.246Z,15.88
2022-09-07T20:49:39.697Z,16.30
2022-09-07T20:54:45.672Z,16.23
2022-09-07T21:06:22.313Z,17.23
2022-09-07T21:11:33.721Z,16.45
2022-09-07T21:17:11.502Z,17.40
2022-09-07T21:22:35.632Z,17.17
2022-09-07T21:28:04.773Z,16.38
2022-09-07T21:33:08.753Z,17.08
2022-09-07T21:38:11.402Z,17.02
2022-09-07T21:43:14.041Z,17.70
2022-09-07T21:48:17.975Z,18.15
2022-09-07T21:53:20.591Z,16.75
2022-09-07T21:58:23.263Z,17.40
2022-09-07T22:03:27.655Z,18.13
2022-09-07T22:08:30.855Z,19.13
2022-09-07T22:13:34.256Z,19.42
2022-09-07T22:18:40.172Z,19.23
2022-09-07T22:23:46.003Z,18.27
2022-09-07T22:28:49.508Z,18.38
2022-09-07T22:33:55.202Z,17.60
2022-09-07T22:38:59.557Z,17.50
2022-09-07T22:44:02.349Z,19.33
2022-09-07T22:49:07.459Z,19.48
2022-09-07T22:54:10.381Z,19.20
2022-09-07T22:59:13.927Z,18.50
2022-09-07T23:04:18.001Z,18.88
2022-09-07T23:09:20.840Z,19.38
2022-09-07T23:14:23.731Z,19.58
2022-09-07T23:19:27.825Z,19.13
2022-09-07T23:24:31.377Z,19.90
2022-09-07T23:29:34.053Z,19.55
2022-09-07T23:34:38.100Z,19.00
2022-09-07T23:39:41.882Z,19.23
2022-09-07T23:44:45.197Z,20.88
2022-09-07T23:49:49.164Z,21.13
2022-09-07T23:54:51.818Z,20.70
2022-09-07T23:59:54.486Z,19.52
